createdAt,value
2018-09-11T00:02:07.232Z,13.66
2018-09-11T00:04:35.935Z,13.59
2018-09-11T00:07:04.244Z,13.52
2018-09-11T00:09:32.560Z,13.39
2018-09-11T00:12:00.888Z,13.50
2018-09-11T00:14:29.239Z,13.41
2018-09-11T00:16:57.531Z,13.34
2018-09-11T00:19:25.903Z,13.46
2018-09-11T00:21:54.488Z,13.44
2018-09-11T00:24:22.809Z,13.25
2018-09-11T00:26:51.112Z,13.28
2018-09-11T00:29:19.527Z,13.40
2018-09-11T00:31:47.963Z,13.27
2018-09-11T00:34:16.283Z,13.28
2018-09-11T00:36:44.583Z,13.20
2018-09-11T00:39:12.908Z,13.17
2018-09-11T00:41:41.220Z,13.08
2018-09-11T00:44:09.549Z,13.04
2018-09-11T00:46:37.863Z,13.10
2018-09-11T00:49:06.203Z,12.93
2018-09-11T00:51:34.506Z,12.81
2018-09-11T00:54:02.800Z,12.78
2018-09-11T00:56:31.440Z,12.74
2018-09-11T00:58:59.731Z,12.84
2018-09-11T01:01:28.131Z,12.91
2018-09-11T01:03:56.378Z,12.95
2018-09-11T01:06:24.709Z,12.85
2018-09-11T01:08:53.007Z,12.97
2018-09-11T01:11:21.384Z,12.86
2018-09-11T01:13:49.720Z,12.81
2018-09-11T01:16:18.097Z,12.80
2018-09-11T01:18:46.408Z,12.84
2018-09-11T01:21:14.740Z,12.88
2018-09-11T01:23:43.032Z,12.66
2018-09-11T01:26:11.343Z,12.70
2018-09-11T01:28:39.631Z,12.71
2018-09-11T01:31:07.971Z,12.54
2018-09-11T01:33:36.283Z,12.37
2018-09-11T01:36:04.651Z,12.31
2018-09-11T01:38:32.986Z,12.29
2018-09-11T01:41:01.316Z,12.26
2018-09-11T01:43:29.660Z,12.37
2018-09-11T01:45:57.978Z,12.31
2018-09-11T01:48:26.283Z,12.31
2018-09-11T01:50:54.612Z,12.22
2018-09-11T01:53:22.927Z,12.17
2018-09-11T01:55:51.255Z,12.20
2018-09-11T01:58:19.572Z,12.20
2018-09-11T02:00:48.315Z,12.15
2018-09-11T02:03:18.624Z,12.08
2018-09-11T02:05:46.938Z,12.12
2018-09-11T02:08:15.226Z,11.99
2018-09-11T02:10:43.547Z,12.01
2018-09-11T02:13:11.832Z,11.98
2018-09-11T02:15:40.202Z,11.93
2018-09-11T02:18:08.494Z,11.89
2018-09-11T02:20:36.832Z,11.95
2018-09-11T02:23:05.135Z,12.05
2018-09-11T02:25:33.479Z,12.10
2018-09-11T02:28:01.780Z,12.23
2018-09-11T02:30:30.100Z,12.19
2018-09-11T02:32:58.408Z,12.16
2018-09-11T02:35:26.736Z,12.05
2018-09-11T02:37:55.029Z,12.02
2018-09-11T02:40:23.355Z,11.92
2018-09-11T02:42:51.711Z,11.80
2018-09-11T02:45:22.806Z,11.88
2018-09-11T02:47:51.955Z,11.94
2018-09-11T02:50:20.293Z,12.02
2018-09-11T02:52:48.594Z,11.90
2018-09-11T02:55:16.924Z,11.93
2018-09-11T02:57:45.235Z,11.75
2018-09-11T03:00:13.591Z,11.64
2018-09-11T03:02:41.884Z,11.82
2018-09-11T03:05:10.230Z,11.73
2018-09-11T03:07:38.563Z,11.70
2018-09-11T03:10:07.000Z,11.85
2018-09-11T03:12:35.328Z,11.81
2018-09-11T03:15:03.708Z,11.87
2018-09-11T03:17:32.022Z,11.89
2018-09-11T03:20:00.320Z,12.02
2018-09-11T03:22:28.651Z,12.13
2018-09-11T03:24:56.953Z,12.02
2018-09-11T03:27:25.262Z,11.97
2018-09-11T03:29:53.564Z,12.09
2018-09-11T03:32:21.903Z,12.03
2018-09-11T03:34:50.216Z,12.00
2018-09-11T03:37:18.524Z,12.00
2018-09-11T03:39:46.860Z,12.03
2018-09-11T03:42:15.217Z,12.03
2018-09-11T03:44:43.529Z,12.01
2018-09-11T03:47:11.852Z,11.98
2018-09-11T03:49:40.162Z,11.91
2018-09-11T03:52:08.503Z,11.93
2018-09-11T03:54:36.809Z,11.93
2018-09-11T03:57:05.346Z,11.95
2018-09-11T03:59:33.652Z,11.91
2018-09-11T04:02:01.999Z,11.92
2018-09-11T04:04:30.343Z,12.06
2018-09-11T04:06:58.807Z,12.11
2018-09-11T04:09:27.115Z,12.17
2018-09-11T04:11:55.451Z,12.28
2018-09-11T04:14:23.763Z,12.30
2018-09-11T04:16:52.087Z,12.54
2018-09-11T04:19:20.384Z,12.50
2018-09-11T04:21:49.135Z,12.56
2018-09-11T04:24:17.436Z,12.52
2018-09-11T04:26:45.760Z,12.53
2018-09-11T04:29:14.133Z,12.62
2018-09-11T04:31:42.492Z,12.85
2018-09-11T04:34:10.836Z,12.97
2018-09-11T04:36:39.159Z,12.97
2018-09-11T04:39:08.228Z,13.04
2018-09-11T04:41:36.539Z,12.94
2018-09-11T04:44:04.851Z,12.93
2018-09-11T04:46:33.471Z,12.88
2018-09-11T04:49:02.084Z,12.94
2018-09-11T04:51:30.397Z,13.13
2018-09-11T04:53:58.709Z,13.15
2018-09-11T04:56:27.047Z,13.16
2018-09-11T04:58:55.364Z,13.29
2018-09-11T05:01:23.691Z,13.29
2018-09-11T05:03:51.983Z,13.32
2018-09-11T05:06:20.307Z,13.42
2018-09-11T05:08:49.079Z,13.46
2018-09-11T05:11:17.430Z,13.45
2018-09-11T05:13:46.263Z,13.53
2018-09-11T05:16:14.595Z,13.59
2018-09-11T05:18:42.911Z,13.63
2018-09-11T05:21:11.220Z,13.72
2018-09-11T05:23:39.531Z,13.77
2018-09-11T05:26:07.844Z,13.80
2018-09-11T05:28:36.172Z,13.83
2018-09-11T05:31:04.487Z,13.98
2018-09-11T05:33:33.208Z,14.05
2018-09-11T05:36:01.539Z,14.14
2018-09-11T05:38:29.872Z,14.47
2018-09-11T05:40:58.164Z,14.54
2018-09-11T05:43:26.475Z,14.54
2018-09-11T05:45:55.168Z,14.60
2018-09-11T05:48:23.502Z,14.67
2018-09-11T05:50:51.836Z,14.74
2018-09-11T05:53:20.150Z,14.78
2018-09-11T05:55:48.455Z,14.90
2018-09-11T05:58:16.819Z,14.99
2018-09-11T06:00:45.087Z,15.14
2018-09-11T06:03:13.432Z,15.24
2018-09-11T06:05:41.759Z,15.40
2018-09-11T06:08:10.090Z,15.95
2018-09-11T06:10:38.398Z,17.08
2018-09-11T06:13:06.727Z,18.67
2018-09-11T06:15:35.048Z,20.28
2018-09-11T06:18:03.399Z,20.81
2018-09-11T06:20:31.751Z,20.94
2018-09-11T06:23:00.051Z,21.74
2018-09-11T06:25:28.348Z,22.23
2018-09-11T06:27:56.667Z,22.02
2018-09-11T06:30:24.971Z,22.17
2018-09-11T06:32:53.299Z,23.07
2018-09-11T06:35:21.737Z,23.50
2018-09-11T06:37:50.060Z,22.75
2018-09-11T06:40:18.379Z,24.43
2018-09-11T06:42:46.719Z,22.84
2018-09-11T06:45:15.052Z,24.27
2018-09-11T06:47:43.374Z,23.51
2018-09-11T06:50:11.691Z,24.29
2018-09-11T06:52:40.399Z,23.18
2018-09-11T06:55:08.719Z,22.67
2018-09-11T06:57:37.039Z,23.65
2018-09-11T07:00:05.384Z,22.98
2018-09-11T07:02:33.696Z,23.61
2018-09-11T07:05:02.024Z,23.07
2018-09-11T07:07:30.347Z,21.89
2018-09-11T07:09:58.663Z,23.52
2018-09-11T07:12:27.439Z,24.61
2018-09-11T07:14:55.916Z,23.40
2018-09-11T07:17:24.391Z,22.93
2018-09-11T07:19:52.854Z,23.02
2018-09-11T07:22:21.052Z,23.40
2018-09-11T07:24:49.383Z,23.72
2018-09-11T07:27:17.723Z,24.93
2018-09-11T07:29:46.067Z,25.46
2018-09-11T07:32:14.452Z,24.56
2018-09-11T07:34:42.740Z,24.89
2018-09-11T07:37:11.048Z,24.61
2018-09-11T07:39:39.375Z,25.13
2018-09-11T07:42:07.699Z,25.28
2018-09-11T07:44:35.988Z,24.63
2018-09-11T07:47:04.314Z,24.32
2018-09-11T07:49:32.659Z,25.30
2018-09-11T07:52:00.964Z,24.62
2018-09-11T07:54:29.282Z,28.95
2018-09-11T07:56:57.959Z,29.93
2018-09-11T07:59:26.535Z,28.33
2018-09-11T08:01:54.839Z,26.90
2018-09-11T08:04:23.751Z,25.56
2018-09-11T08:06:52.191Z,24.42
2018-09-11T08:09:20.987Z,25.88
2018-09-11T08:11:49.370Z,25.67
2018-09-11T08:14:17.680Z,24.72
2018-09-11T08:16:45.990Z,23.97
2018-09-11T08:19:14.328Z,23.16
2018-09-11T08:21:42.627Z,24.76
2018-09-11T08:24:11.767Z,25.54
2018-09-11T08:26:40.063Z,24.58
2018-09-11T08:29:08.854Z,24.49
2018-09-11T08:31:37.168Z,24.87
2018-09-11T08:34:05.516Z,25.87
2018-09-11T08:36:34.034Z,25.66
2018-09-11T08:39:02.532Z,25.67
2018-09-11T08:41:30.847Z,25.23
2018-09-11T08:43:59.171Z,26.33
2018-09-11T08:46:27.494Z,26.08
2018-09-11T08:48:55.951Z,27.21
2018-09-11T08:51:24.247Z,25.66
2018-09-11T08:53:52.561Z,24.08
2018-09-11T08:56:20.859Z,25.44
2018-09-11T08:58:49.219Z,25.77
2018-09-11T09:01:17.875Z,25.76
2018-09-11T09:03:46.567Z,25.12
2018-09-11T09:06:14.872Z,24.63
2018-09-11T09:08:43.212Z,25.56
2018-09-11T09:11:11.771Z,26.38
2018-09-11T09:13:40.104Z,25.47
2018-09-11T09:16:08.399Z,26.66
2018-09-11T09:18:36.716Z,26.85
2018-09-11T09:21:05.516Z,26.82
2018-09-11T09:23:33.780Z,29.30
2018-09-11T09:26:02.124Z,28.30
2018-09-11T09:28:30.449Z,30.06
2018-09-11T09:30:58.819Z,29.10
2018-09-11T09:33:27.140Z,29.59
2018-09-11T09:35:55.444Z,29.86
2018-09-11T09:38:23.779Z,32.06
2018-09-11T09:40:52.083Z,32.28
2018-09-11T09:43:20.404Z,31.44
2018-09-11T09:45:49.015Z,31.30
2018-09-11T09:48:17.575Z,31.58
2018-09-11T09:50:45.961Z,29.60
2018-09-11T09:53:14.284Z,30.58
2018-09-11T09:55:42.633Z,32.36
2018-09-11T09:58:10.943Z,32.42
2018-09-11T10:00:44.479Z,30.22
2018-09-11T10:03:12.791Z,32.94
2018-09-11T10:05:42.685Z,31.93
2018-09-11T10:08:10.979Z,32.59
2018-09-11T10:10:39.308Z,35.51
2018-09-11T10:13:07.955Z,32.60
2018-09-11T10:15:36.268Z,31.32
2018-09-11T10:18:04.603Z,32.31
2018-09-11T10:20:33.591Z,32.85
2018-09-11T10:23:01.898Z,32.92
2018-09-11T10:25:30.209Z,32.12
2018-09-11T10:27:58.510Z,30.93
2018-09-11T10:30:26.858Z,32.94
2018-09-11T10:32:55.143Z,32.58
2018-09-11T10:35:23.458Z,33.73
2018-09-11T10:37:51.763Z,31.75
2018-09-11T10:40:20.096Z,33.47
2018-09-11T10:42:48.404Z,32.33
2018-09-11T10:45:16.772Z,34.06
2018-09-11T10:47:45.107Z,32.48
2018-09-11T10:50:13.415Z,33.20
2018-09-11T10:52:41.722Z,34.83
2018-09-11T10:55:10.052Z,35.10
2018-09-11T10:57:38.362Z,34.95
2018-09-11T11:00:06.788Z,35.14
2018-09-11T11:02:35.095Z,35.68
2018-09-11T11:05:03.748Z,35.83
2018-09-11T11:07:32.047Z,34.18
2018-09-11T11:10:00.461Z,33.20
2018-09-11T11:12:28.736Z,34.70
2018-09-11T11:14:57.056Z,33.01
2018-09-11T11:17:25.372Z,34.31
2018-09-11T11:19:54.279Z,32.86
2018-09-11T11:22:22.612Z,32.43
2018-09-11T11:24:50.922Z,31.81
2018-09-11T11:27:19.299Z,31.13
2018-09-11T11:29:47.790Z,32.07
2018-09-11T11:32:16.307Z,31.61
2018-09-11T11:34:44.651Z,30.65
2018-09-11T11:37:13.108Z,31.39
2018-09-11T11:39:41.287Z,30.26
2018-09-11T11:42:09.769Z,29.24
2018-09-11T11:44:38.047Z,28.32
2018-09-11T11:47:06.987Z,29.00
2018-09-11T11:49:35.328Z,27.97
2018-09-11T11:52:03.660Z,29.46
2018-09-11T11:54:31.975Z,30.35
2018-09-11T11:57:00.288Z,28.40
2018-09-11T11:59:28.602Z,29.34
2018-09-11T12:01:56.918Z,29.27
2018-09-11T12:04:25.264Z,29.49
2018-09-11T12:06:53.800Z,30.11
2018-09-11T12:09:22.124Z,28.77
2018-09-11T12:11:50.436Z,28.92
2018-09-11T12:14:18.739Z,29.03
2018-09-11T12:16:47.082Z,30.47
2018-09-11T12:19:15.388Z,30.85
2018-09-11T12:21:43.709Z,31.41
2018-09-11T12:24:12.340Z,31.59
2018-09-11T12:26:40.881Z,31.56
2018-09-11T12:29:09.184Z,28.96
2018-09-11T12:31:37.511Z,29.41
2018-09-11T12:34:05.820Z,28.74
2018-09-11T12:36:34.134Z,29.27
2018-09-11T12:39:02.439Z,30.30
2018-09-11T12:41:30.770Z,30.63
2018-09-11T12:43:59.073Z,29.17
2018-09-11T12:46:27.783Z,29.61
2018-09-11T12:48:55.716Z,29.77
2018-09-11T12:51:24.027Z,29.47
2018-09-11T12:53:52.336Z,29.30
2018-09-11T12:56:20.654Z,29.82
2018-09-11T12:58:48.967Z,30.01
2018-09-11T13:01:17.759Z,30.14
2018-09-11T13:03:46.043Z,30.81
2018-09-11T13:06:14.394Z,28.67
2018-09-11T13:08:43.215Z,29.49
2018-09-11T13:11:11.556Z,29.89
2018-09-11T13:13:39.862Z,30.44
2018-09-11T13:16:08.207Z,30.56
2018-09-11T13:18:36.595Z,29.85
2018-09-11T13:21:04.963Z,30.47
2018-09-11T13:23:33.276Z,30.45
2018-09-11T13:26:01.596Z,31.19
2018-09-11T13:28:29.907Z,30.63
2018-09-11T13:30:58.239Z,30.56
2018-09-11T13:33:26.551Z,29.35
2018-09-11T13:35:54.958Z,28.73
2018-09-11T13:38:23.276Z,29.54
2018-09-11T13:40:51.611Z,28.70
2018-09-11T13:43:19.933Z,29.25
2018-09-11T13:45:48.280Z,30.16
2018-09-11T13:48:16.961Z,28.08
2018-09-11T13:50:45.414Z,28.22
2018-09-11T13:53:13.731Z,28.81
2018-09-11T13:55:42.087Z,29.99
2018-09-11T13:58:10.767Z,29.47
2018-09-11T14:00:39.094Z,29.64
2018-09-11T14:03:07.416Z,29.86
2018-09-11T14:05:35.744Z,30.33
2018-09-11T14:08:04.099Z,30.16
2018-09-11T14:10:32.699Z,29.74
2018-09-11T14:13:01.011Z,29.37
2018-09-11T14:15:29.336Z,29.53
2018-09-11T14:17:57.622Z,29.55
2018-09-11T14:20:25.927Z,29.45
2018-09-11T14:22:54.249Z,28.94
2018-09-11T14:25:22.567Z,29.11
2018-09-11T14:27:51.352Z,29.62
2018-09-11T14:30:19.672Z,29.61
2018-09-11T14:32:48.095Z,29.22
2018-09-11T14:35:16.460Z,29.04
2018-09-11T14:37:44.784Z,29.57
2018-09-11T14:40:13.084Z,29.84
2018-09-11T14:42:41.442Z,28.76
2018-09-11T14:45:09.744Z,28.58
2018-09-11T14:47:42.548Z,28.85
2018-09-11T14:50:11.565Z,28.89
2018-09-11T14:52:39.901Z,29.36
2018-09-11T14:55:08.844Z,29.86
2018-09-11T14:57:37.200Z,29.77
2018-09-11T15:00:06.153Z,29.27
2018-09-11T15:02:34.500Z,29.78
2018-09-11T15:05:03.169Z,29.20
2018-09-11T15:07:31.504Z,29.13
2018-09-11T15:10:00.316Z,29.41
2018-09-11T15:12:28.800Z,29.57
2018-09-11T15:14:57.167Z,29.66
2018-09-11T15:17:25.447Z,29.31
2018-09-11T15:19:53.955Z,29.58
2018-09-11T15:22:22.611Z,28.67
2018-09-11T15:24:50.919Z,28.86
2018-09-11T15:27:19.251Z,28.90
2018-09-11T15:29:47.588Z,29.06
2018-09-11T15:32:15.975Z,29.21
2018-09-11T15:34:44.615Z,29.41
2018-09-11T15:37:12.930Z,29.39
2018-09-11T15:39:41.236Z,30.42
2018-09-11T15:42:09.559Z,30.67
2018-09-11T15:44:37.884Z,30.30
2018-09-11T15:47:06.266Z,29.56
2018-09-11T15:49:34.521Z,29.66
2018-09-11T15:52:03.899Z,29.63
2018-09-11T15:54:32.200Z,29.04
2018-09-11T15:57:00.631Z,28.62
2018-09-11T15:59:29.282Z,28.59
2018-09-11T16:01:57.604Z,28.79
2018-09-11T16:04:26.507Z,29.21
2018-09-11T16:06:54.868Z,28.18
2018-09-11T16:09:23.403Z,28.40
2018-09-11T16:11:51.741Z,28.58
2018-09-11T16:14:20.055Z,27.84
2018-09-11T16:16:48.367Z,27.91
2018-09-11T16:19:16.779Z,27.57
2018-09-11T16:21:45.313Z,27.09
2018-09-11T16:24:13.784Z,27.26
2018-09-11T16:26:42.108Z,27.34
2018-09-11T16:29:10.407Z,27.19
2018-09-11T16:31:38.744Z,26.81
2018-09-11T16:34:07.078Z,26.62
2018-09-11T16:36:35.412Z,26.65
2018-09-11T16:39:05.483Z,26.12
2018-09-11T16:41:33.800Z,26.12
2018-09-11T16:44:02.103Z,26.26
2018-09-11T16:46:30.463Z,25.97
2018-09-11T16:48:58.749Z,25.88
2018-09-11T16:51:27.063Z,25.84
2018-09-11T16:53:57.900Z,25.98
2018-09-11T16:56:27.042Z,25.86
2018-09-11T16:58:55.963Z,25.74
2018-09-11T17:01:26.546Z,25.39
2018-09-11T17:03:55.510Z,25.07
2018-09-11T17:06:24.490Z,25.36
2018-09-11T17:08:53.835Z,25.19
2018-09-11T17:11:22.731Z,25.08
2018-09-11T17:13:52.853Z,25.13
2018-09-11T17:16:21.985Z,25.16
2018-09-11T17:18:51.172Z,25.21
2018-09-11T17:21:19.479Z,25.04
2018-09-11T17:23:47.804Z,24.84
2018-09-11T17:26:16.549Z,24.55
2018-09-11T17:28:45.852Z,24.40
2018-09-11T17:31:16.107Z,24.52
2018-09-11T17:33:45.129Z,24.46
2018-09-11T17:36:14.292Z,24.23
2018-09-11T17:38:43.636Z,24.24
2018-09-11T17:41:12.985Z,24.11
2018-09-11T17:43:41.388Z,23.99
2018-09-11T17:46:09.733Z,23.98
2018-09-11T17:48:38.085Z,23.87
2018-09-11T17:51:06.456Z,23.73
2018-09-11T17:53:34.798Z,23.72
2018-09-11T17:56:03.107Z,23.54
2018-09-11T17:58:31.436Z,23.44
2018-09-11T18:00:59.723Z,23.50
2018-09-11T18:03:28.063Z,23.34
2018-09-11T18:05:56.364Z,23.35
2018-09-11T18:08:24.680Z,23.19
2018-09-11T18:10:52.973Z,23.14
2018-09-11T18:13:21.344Z,22.90
2018-09-11T18:15:49.671Z,22.74
2018-09-11T18:18:18.010Z,22.76
2018-09-11T18:20:46.307Z,22.61
2018-09-11T18:23:14.708Z,22.65
2018-09-11T18:25:43.072Z,22.49
2018-09-11T18:28:11.403Z,22.49
2018-09-11T18:30:40.136Z,22.27
2018-09-11T18:33:08.460Z,22.23
2018-09-11T18:35:36.769Z,22.20
2018-09-11T18:38:05.190Z,22.09
2018-09-11T18:40:33.447Z,22.11
2018-09-11T18:43:03.144Z,22.00
2018-09-11T18:45:32.630Z,22.00
2018-09-11T18:48:06.466Z,22.02
2018-09-11T18:50:36.282Z,21.84
2018-09-11T18:53:07.841Z,21.67
2018-09-11T18:55:36.936Z,21.53
2018-09-11T18:58:07.114Z,21.45
2018-09-11T19:00:36.724Z,21.23
2018-09-11T19:03:06.456Z,21.10
2018-09-11T19:05:36.758Z,20.99
2018-09-11T19:08:05.879Z,20.76
2018-09-11T19:10:34.391Z,20.67
2018-09-11T19:13:05.836Z,20.53
2018-09-11T19:15:35.023Z,20.32
2018-09-11T19:18:04.284Z,20.15
2018-09-11T19:20:33.732Z,20.02
2018-09-11T19:23:03.411Z,19.88
2018-09-11T19:25:32.381Z,19.73
2018-09-11T19:28:01.460Z,19.81
2018-09-11T19:30:30.236Z,19.44
2018-09-11T19:32:59.430Z,19.45
2018-09-11T19:35:28.136Z,19.47
2018-09-11T19:37:56.489Z,19.45
2018-09-11T19:40:25.205Z,19.39
2018-09-11T19:42:53.885Z,19.27
2018-09-11T19:45:22.231Z,19.33
2018-09-11T19:47:50.576Z,19.29
2018-09-11T19:50:18.961Z,19.23
2018-09-11T19:52:47.175Z,19.21
2018-09-11T19:55:16.048Z,19.12
2018-09-11T19:57:44.947Z,19.03
2018-09-11T20:00:15.967Z,18.95
2018-09-11T20:02:45.732Z,18.76
2018-09-11T20:05:15.708Z,18.53
2018-09-11T20:07:44.718Z,18.34
2018-09-11T20:10:13.559Z,18.26
2018-09-11T20:12:42.089Z,18.13
2018-09-11T20:15:11.077Z,17.99
2018-09-11T20:17:39.653Z,17.90
2018-09-11T20:20:08.632Z,18.03
2018-09-11T20:22:37.675Z,17.97
2018-09-11T20:25:07.484Z,18.02
2018-09-11T20:27:37.456Z,18.15
2018-09-11T20:30:08.028Z,18.18
2018-09-11T20:32:36.751Z,18.19
2018-09-11T20:35:05.619Z,18.31
2018-09-11T20:37:34.471Z,18.28
2018-09-11T20:40:03.746Z,18.51
2018-09-11T20:42:32.160Z,18.45
2018-09-11T20:45:00.482Z,18.58
2018-09-11T20:47:28.807Z,18.59
2018-09-11T20:49:57.163Z,18.72
2018-09-11T20:52:25.504Z,18.78
2018-09-11T20:54:53.799Z,18.54
2018-09-11T20:57:22.132Z,18.34
2018-09-11T20:59:50.471Z,18.26
2018-09-11T21:02:18.784Z,18.25
2018-09-11T21:04:47.092Z,18.26
2018-09-11T21:07:15.846Z,18.27
2018-09-11T21:09:44.184Z,18.33
2018-09-11T21:12:12.519Z,18.29
2018-09-11T21:14:40.822Z,18.34
2018-09-11T21:17:09.168Z,18.33
2018-09-11T21:19:37.831Z,18.41
2018-09-11T21:22:06.159Z,18.32
2018-09-11T21:24:34.512Z,18.14
2018-09-11T21:27:02.951Z,18.02
2018-09-11T21:29:31.295Z,18.07
2018-09-11T21:31:59.603Z,18.10
2018-09-11T21:34:28.660Z,18.03
2018-09-11T21:36:56.956Z,17.92
2018-09-11T21:39:25.299Z,17.95
2018-09-11T21:41:53.579Z,17.86
2018-09-11T21:44:21.908Z,17.83
2018-09-11T21:46:50.224Z,18.05
2018-09-11T21:49:18.551Z,17.88
2018-09-11T21:51:46.865Z,18.00
2018-09-11T21:54:15.198Z,17.99
2018-09-11T21:56:43.511Z,17.91
2018-09-11T21:59:12.111Z,18.01
2018-09-11T22:01:44.375Z,17.82
2018-09-11T22:04:13.076Z,17.83
2018-09-11T22:06:41.368Z,17.72
2018-09-11T22:09:10.866Z,17.80
2018-09-11T22:11:39.530Z,17.76
2018-09-11T22:14:08.218Z,17.75
2018-09-11T22:16:36.571Z,17.85
2018-09-11T22:19:05.099Z,17.79
2018-09-11T22:21:33.650Z,17.71
2018-09-11T22:24:01.988Z,17.72
2018-09-11T22:26:30.291Z,17.69
2018-09-11T22:28:58.681Z,17.57
2018-09-11T22:31:26.996Z,17.41
2018-09-11T22:33:55.296Z,17.40
2018-09-11T22:36:23.859Z,17.37
2018-09-11T22:38:52.180Z,17.31
2018-09-11T22:41:20.504Z,17.30
2018-09-11T22:43:49.147Z,17.26
2018-09-11T22:46:17.496Z,17.15
2018-09-11T22:48:45.787Z,17.11
2018-09-11T22:51:14.118Z,17.08
2018-09-11T22:53:42.431Z,16.87
2018-09-11T22:56:10.737Z,16.80
2018-09-11T22:58:39.055Z,16.68
2018-09-11T23:01:07.388Z,16.75
2018-09-11T23:03:35.703Z,16.68
2018-09-11T23:06:04.014Z,16.70
2018-09-11T23:08:32.355Z,16.61
2018-09-11T23:11:00.695Z,16.46
2018-09-11T23:13:29.007Z,16.52
2018-09-11T23:15:57.548Z,16.41
2018-09-11T23:18:25.860Z,16.44
2018-09-11T23:20:54.200Z,16.36
2018-09-11T23:23:22.496Z,16.39
2018-09-11T23:25:50.848Z,16.33
2018-09-11T23:28:19.160Z,16.28
2018-09-11T23:30:47.544Z,16.30
2018-09-11T23:33:15.843Z,16.32
2018-09-11T23:35:44.248Z,16.18
2018-09-11T23:38:12.567Z,16.25
2018-09-11T23:40:40.919Z,16.16
2018-09-11T23:43:09.229Z,16.26
2018-09-11T23:45:37.540Z,16.12
2018-09-11T23:48:06.056Z,15.95
2018-09-11T23:50:34.627Z,16.07
2018-09-11T23:53:02.926Z,16.05
2018-09-11T23:55:31.263Z,15.98
2018-09-11T23:57:59.843Z,15.91
